Time;durP1;ratioP1;P1;durP2;ratioP2;P2;SDS_P1;SDS_P2;PMS_P1;PMS_P2;Temp;Humidity;BMP_temperature;BMP_pressure;BME280_temperature;BME280_humidity;BME280_pressure;Samples;Min_cycle;Max_cycle;Signal;HPM_P1;HPM_P2
2023/02/07 00:01:13;;;;;;;16.10;8.35;;;;;;;-4.96;65.00;96092.81;5093231;27;20118;-77
2023/02/07 00:03:39;;;;;;;10.70;7.30;;;;;;;-5.04;64.53;96070.03;5105075;28;20479;-77
2023/02/07 00:06:13;;;;;;;13.20;7.47;;;;;;;-4.70;63.35;96100.34;5091872;27;20023;-77
2023/02/07 00:08:39;;;;;;;11.80;6.93;;;;;;;-5.37;64.41;96007.59;5125994;27;20119;-77
2023/02/07 00:11:15;;;;;;;12.25;7.35;;;;;;;-4.87;64.03;96108.00;5097038;27;20072;-77
2023/02/07 00:13:40;;;;;;;11.35;7.07;;;;;;;-4.97;64.05;96074.22;5120070;27;20066;-77
2023/02/07 00:16:07;;;;;;;14.00;7.40;;;;;;;-5.08;63.32;96077.63;5100139;28;20055;-77
2023/02/07 00:18:32;;;;;;;15.45;7.20;;;;;;;-4.88;65.38;96105.47;5090923;27;20031;-77
2023/02/07 00:21:11;;;;;;;12.93;6.78;;;;;;;-5.13;64.80;96072.56;5093060;27;20037;-77
2023/02/07 00:23:37;;;;;;;12.93;7.68;;;;;;;-4.86;65.90;96135.03;5107506;28;20561;-77
2023/02/07 00:26:03;;;;;;;12.55;7.30;;;;;;;-4.79;64.35;96130.78;5090754;28;20035;-77
2023/02/07 00:28:28;;;;;;;11.13;6.82;;;;;;;-5.31;64.64;96035.44;5094271;28;20069;-77
2023/02/07 00:31:04;;;;;;;14.65;6.78;;;;;;;-4.88;64.00;96098.69;5124333;28;20034;-77
2023/02/07 00:33:30;;;;;;;11.15;6.38;;;;;;;-4.91;64.60;96091.09;5090775;28;20103;-77
2023/02/07 00:35:57;;;;;;;13.23;6.78;;;;;;;-4.61;64.37;96135.81;5090742;28;20586;-77
2023/02/07 00:38:23;;;;;;;10.02;6.30;;;;;;;-5.51;65.04;96027.03;5092560;28;20027;-76
2023/02/07 00:40:48;;;;;;;11.80;7.00;;;;;;;-4.67;65.03;96135.00;5106207;28;20520;-77
2023/02/07 00:43:14;;;;;;;11.85;6.90;;;;;;;-4.59;65.20;96134.13;5109948;28;20058;-77
2023/02/07 00:45:39;;;;;;;10.18;6.03;;;;;;;-5.11;65.49;96047.22;5101313;28;20035;-77
2023/02/07 00:48:05;;;;;;;9.70;5.80;;;;;;;-4.57;64.74;96129.91;5108491;28;20039;-77
2023/02/07 00:50:30;;;;;;;11.77;6.72;;;;;;;-4.47;64.90;96148.47;5105799;28;20076;-77
2023/02/07 00:52:56;;;;;;;9.95;6.25;;;;;;;-4.47;64.98;96148.47;5105222;28;20066;-77
2023/02/07 00:55:21;;;;;;;9.77;6.22;;;;;;;-4.53;65.38;96134.13;5079425;28;20028;-77
2023/02/07 00:57:47;;;;;;;9.32;5.82;;;;;;;-4.57;65.29;96132.44;5093699;28;20019;-77
2023/02/07 01:00:13;;;;;;;10.10;6.10;;;;;;;-4.43;65.30;96134.06;5093780;28;20041;-77
2023/02/07 01:02:38;;;;;;;10.10;6.40;;;;;;;-4.57;65.27;96114.69;5128460;28;20500;-77
2023/02/07 01:05:05;;;;;;;10.75;6.07;;;;;;;-4.35;63.38;96134.88;5095433;28;20066;-77
2023/02/07 01:07:31;;;;;;;10.73;7.00;;;;;;;-4.58;64.10;96094.41;5091409;28;20047;-77
2023/02/07 01:09:57;;;;;;;10.30;5.75;;;;;;;-4.43;63.91;96139.16;5107378;28;20035;-77
2023/02/07 01:12:22;;;;;;;10.43;5.93;;;;;;;-4.45;64.00;96130.72;5112746;28;20080;-77
2023/02/07 01:14:48;;;;;;;11.85;6.25;;;;;;;-4.39;64.07;96135.78;5113092;28;20031;-77
2023/02/07 01:17:13;;;;;;;9.23;5.75;;;;;;;-4.62;64.63;96106.25;5082258;28;20027;-77
2023/02/07 01:19:39;;;;;;;10.30;5.65;;;;;;;-4.57;65.06;96136.66;5095398;28;20496;-77
2023/02/07 01:22:04;;;;;;;10.65;6.28;;;;;;;-5.14;65.50;96037.94;5104005;28;20031;-77
2023/02/07 01:24:30;;;;;;;9.52;5.75;;;;;;;-5.02;64.03;96042.97;5076034;28;20047;-77
2023/02/07 01:26:55;;;;;;;10.18;5.53;;;;;;;-4.48;64.99;96131.56;5106318;28;20501;-77
2023/02/07 01:29:21;;;;;;;8.88;5.10;;;;;;;-4.60;64.34;96118.91;5098755;28;20412;-77
2023/02/07 01:31:47;;;;;;;10.82;6.10;;;;;;;-4.48;64.74;96131.56;5079513;28;20528;-77
2023/02/07 01:34:13;;;;;;;9.43;5.65;;;;;;;-4.52;64.52;96110.41;5090726;28;20405;-77
2023/02/07 01:36:38;;;;;;;9.07;5.60;;;;;;;-5.05;64.40;96022.69;5075688;28;20105;-77
2023/02/07 01:39:04;;;;;;;7.72;5.22;;;;;;;-5.05;65.34;96017.63;5093978;28;20024;-77
2023/02/07 01:41:29;;;;;;;11.00;5.30;;;;;;;-4.40;65.43;96118.84;5092554;28;20513;-77
2023/02/07 01:44:27;;;;;;;8.88;5.57;;;;;;;-4.46;65.34;96113.78;5101763;28;20047;-77
2023/02/07 01:46:53;;;;;;;10.35;6.05;;;;;;;-4.82;64.63;96050.53;5107855;27;20069;-77
2023/02/07 01:49:31;;;;;;;9.13;6.07;;;;;;;-4.55;64.66;96110.44;5112848;28;20032;-77
2023/02/07 01:52:05;;;;;;;9.13;6.32;;;;;;;-4.61;64.01;96105.38;5091717;28;20035;-77
2023/02/07 01:54:32;;;;;;;11.10;6.47;;;;;;;-4.58;64.35;96094.41;5096400;28;20030;-76
2023/02/07 01:57:01;;;;;;;10.30;6.00;;;;;;;-4.53;63.58;96103.66;5113241;27;20111;-77
2023/02/07 01:59:28;;;;;;;8.63;5.50;;;;;;;-4.54;63.71;96123.97;5096381;27;20492;-77
2023/02/07 02:01:53;;;;;;;10.98;5.95;;;;;;;-4.99;63.64;96027.75;5082607;27;20404;-77
2023/02/07 02:04:19;;;;;;;7.20;5.22;;;;;;;-4.58;62.96;96086.78;5123104;27;20035;-76
2023/02/07 02:06:44;;;;;;;9.60;5.78;;;;;;;-5.06;65.02;96021.03;5113999;28;20028;-77
2023/02/07 02:09:11;;;;;;;8.82;5.55;;;;;;;-5.12;64.89;96036.25;5108088;27;20465;-77
2023/02/07 02:12:02;;;;;;;10.20;5.30;;;;;;;-4.67;65.03;96109.66;5094353;27;20066;-77
2023/02/07 02:14:49;;;;;;;9.10;5.75;;;;;;;-4.58;65.95;96107.91;5112901;27;20397;-77
2023/02/07 02:17:29;;;;;;;8.77;5.47;;;;;;;-5.04;65.02;96028.59;5122538;27;20110;-77
2023/02/07 02:20:05;;;;;;;9.90;6.13;;;;;;;-4.68;66.73;96113.88;5090212;27;20038;-77
2023/02/07 02:22:49;;;;;;;9.43;5.53;;;;;;;-4.68;66.35;96118.09;5127091;27;20023;-77
2023/02/07 02:25:41;;;;;;;10.05;5.50;;;;;;;-4.85;66.52;96115.59;5128097;27;20039;-77
2023/02/07 02:28:44;;;;;;;9.20;5.55;;;;;;;-4.91;67.07;96120.69;5111694;27;20039;-77
2023/02/07 02:31:18;;;;;;;7.50;5.13;;;;;;;-4.79;66.25;96118.09;5120090;27;20066;-77
2023/02/07 02:33:50;;;;;;;8.48;5.00;;;;;;;-4.92;66.70;96127.44;5122283;27;20515;-77
2023/02/07 02:36:31;;;;;;;8.45;5.25;;;;;;;-4.77;66.92;96124.88;5111056;27;20035;-77
2023/02/07 02:38:57;;;;;;;;;;;;;;;-4.79;66.29;96130.78;5109431;27;20673;-77
2023/02/07 02:41:25;;;;;;;7.25;4.93;;;;;;;-4.73;66.89;96138.41;5128057;27;20010;-76
2023/02/07 02:44:00;;;;;;;9.23;5.60;;;;;;;-5.67;66.92;96000.88;5111050;27;20036;-77
2023/02/07 02:46:30;;;;;;;7.82;5.20;;;;;;;-4.85;66.78;96115.59;5115876;27;20046;-77
2023/02/07 02:48:56;;;;;;;9.43;5.57;;;;;;;-5.31;67.32;96043.03;5091696;27;20458;-77
2023/02/07 02:51:21;;;;;;;8.52;5.25;;;;;;;-5.04;67.40;96095.38;5096643;27;20039;-77
2023/02/07 02:53:54;;;;;;;7.90;5.63;;;;;;;-4.78;66.92;96124.88;5083795;27;20020;-77
2023/02/07 02:56:40;;;;;;;9.57;6.07;;;;;;;-4.82;67.06;96125.72;5110905;27;20031;-77
2023/02/07 02:59:05;;;;;;;8.23;5.95;;;;;;;-4.79;66.59;96131.66;5124442;27;20023;-77
2023/02/07 03:02:02;;;;;;;9.93;6.75;;;;;;;-4.78;66.71;96135.03;5123770;27;20035;-77
2023/02/07 03:04:37;;;;;;;8.52;6.28;;;;;;;-4.77;66.08;96131.63;5127396;27;20038;-77
2023/02/07 03:07:28;;;;;;;10.68;6.60;;;;;;;-4.67;65.56;96135.00;5126900;27;20036;-77
2023/02/07 03:10:32;;;;;;;9.40;6.18;;;;;;;-4.78;66.29;96135.03;5107409;27;20100;-77
2023/02/07 03:13:22;;;;;;;12.02;6.07;;;;;;;-4.61;65.98;96138.38;5118445;27;20550;-77
2023/02/07 03:16:09;;;;;;;8.73;5.80;;;;;;;-4.69;65.92;96140.06;5106541;27;20523;-77
2023/02/07 03:18:44;;;;;;;8.85;5.38;;;;;;;-4.75;65.92;96138.41;5127161;27;20117;-77
2023/02/07 03:21:36;;;;;;;8.68;5.70;;;;;;;-4.81;67.00;96142.66;5128275;27;20096;-77
2023/02/07 03:24:07;;;;;;;9.65;5.80;;;;;;;-4.81;67.17;96147.72;5081620;28;20047;-77
2023/02/07 03:26:33;;;;;;;8.70;5.15;;;;;;;-4.78;66.89;96147.72;5072155;28;20043;-77
2023/02/07 03:28:59;;;;;;;9.35;5.85;;;;;;;-5.38;66.57;96043.88;5054929;28;20044;-76
2023/02/07 03:31:25;;;;;;;9.63;5.57;;;;;;;-5.17;66.66;96061.59;5084367;28;20537;-76
2023/02/07 03:33:53;;;;;;;10.57;6.63;;;;;;;-5.40;65.47;96043.91;5089299;28;20116;-76
2023/02/07 03:36:26;;;;;;;9.23;5.78;;;;;;;-5.19;65.30;96044.72;5048260;28;20123;-76
2023/02/07 03:38:51;;;;;;;9.80;5.82;;;;;;;-4.51;64.87;96140.03;5087535;28;20036;-76
2023/02/07 03:41:26;;;;;;;11.48;6.60;;;;;;;-4.52;65.04;96148.47;5056090;28;20038;-76
2023/02/07 03:43:51;;;;;;;13.88;7.40;;;;;;;-4.73;63.78;96110.50;5066267;28;20075;-76
2023/02/07 03:46:17;;;;;;;16.05;8.02;;;;;;;-4.42;63.68;96148.47;5067777;28;20520;-77
2023/02/07 03:48:42;;;;;;;15.70;7.57;;;;;;;-5.10;63.35;96034.53;5068624;28;20040;-76
2023/02/07 03:51:08;;;;;;;9.85;5.60;;;;;;;-4.84;62.75;96059.00;5101905;28;20029;-77
2023/02/07 03:53:33;;;;;;;10.65;6.45;;;;;;;-4.57;63.43;96096.94;5071374;28;20027;-76
2023/02/07 03:55:59;;;;;;;11.82;7.00;;;;;;;-4.33;62.97;96141.66;5089284;28;20062;-76
2023/02/07 03:58:24;;;;;;;12.98;7.85;;;;;;;-4.31;63.68;96144.19;5100155;28;20027;-76
2023/02/07 04:00:50;;;;;;;12.27;7.57;;;;;;;-4.86;64.07;96045.47;5105477;27;20471;-76
2023/02/07 04:03:15;;;;;;;13.23;7.70;;;;;;;-4.19;63.77;96144.13;5109087;27;20043;-76
2023/02/07 04:05:42;;;;;;;11.25;6.75;;;;;;;-4.19;63.32;96141.59;5110246;27;20035;-76
2023/02/07 04:08:08;;;;;;;12.63;7.13;;;;;;;-4.84;63.73;96046.31;5104017;27;20039;-76
2023/02/07 04:10:33;;;;;;;10.57;6.75;;;;;;;-4.38;63.32;96124.75;5089156;27;20032;-77
2023/02/07 04:12:59;;;;;;;10.27;6.65;;;;;;;-4.47;64.76;96130.72;5089270;27;20912;-76
2023/02/07 04:15:24;;;;;;;9.95;5.85;;;;;;;-4.32;64.82;96142.50;5091828;27;20031;-76
2023/02/07 04:17:50;;;;;;;10.05;5.30;;;;;;;-4.39;64.36;96128.16;5104539;27;20116;-76
2023/02/07 04:20:15;;;;;;;9.25;5.93;;;;;;;-4.43;64.67;96141.69;5092974;28;20023;-76
2023/02/07 04:22:41;;;;;;;9.60;5.82;;;;;;;-4.86;64.04;96053.06;5094116;28;20080;-76
2023/02/07 04:25:06;;;;;;;9.05;5.57;;;;;;;-4.80;63.06;96060.66;5080933;28;20028;-76
2023/02/07 04:27:32;;;;;;;9.80;6.35;;;;;;;-4.50;63.79;96130.72;5095706;28;20036;-77
2023/02/07 04:29:57;;;;;;;9.70;5.82;;;;;;;-4.50;64.10;96118.88;5094093;28;20038;-77
2023/02/07 04:32:23;;;;;;;10.50;5.72;;;;;;;-4.41;64.55;96145.91;5089576;28;20039;-76
2023/02/07 04:34:48;;;;;;;9.40;5.85;;;;;;;-4.50;64.97;96141.72;5090881;28;20027;-76
2023/02/07 04:37:14;;;;;;;7.55;4.80;;;;;;;-4.89;64.33;96069.13;5110880;28;20039;-76
2023/02/07 04:39:39;;;;;;;12.15;5.93;;;;;;;-5.04;65.13;96052.28;5075103;28;20454;-76
2023/02/07 04:42:06;;;;;;;33.15;21.83;;;;;;;-5.10;65.84;96059.88;5092609;28;20047;-77
2023/02/07 04:44:32;;;;;;;13.90;8.77;;;;;;;-5.14;64.89;96047.25;5082816;28;20225;-76
2023/02/07 04:46:57;;;;;;;10.98;6.65;;;;;;;-4.43;65.01;96146.75;5109815;28;20126;-77
2023/02/07 04:49:23;;;;;;;10.02;6.18;;;;;;;-4.89;63.93;96068.31;5113602;28;20420;-76
2023/02/07 04:51:48;;;;;;;9.43;5.53;;;;;;;-5.12;64.96;96055.69;5118154;28;20096;-76
2023/02/07 04:54:14;;;;;;;9.00;5.47;;;;;;;-4.62;64.93;96146.84;5116784;28;20066;-77
2023/02/07 04:56:39;;;;;;;10.13;5.22;;;;;;;-4.57;65.15;96162.88;5077482;28;20156;-76
2023/02/07 04:59:05;;;;;;;7.82;5.35;;;;;;;-5.07;64.73;96064.97;5093452;28;20023;-76
2023/02/07 05:01:30;;;;;;;9.57;5.25;;;;;;;-5.13;63.94;96049.75;5092561;28;20050;-77
2023/02/07 05:03:56;;;;;;;9.80;5.80;;;;;;;-4.59;64.70;96156.97;5105464;28;20062;-77
2023/02/07 05:06:21;;;;;;;11.55;6.32;;;;;;;-4.51;64.36;96167.09;5092893;28;20076;-78
2023/02/07 05:08:47;;;;;;;8.82;5.68;;;;;;;-4.71;65.63;96144.28;5113627;28;20515;-78
2023/02/07 05:11:12;;;;;;;10.88;6.60;;;;;;;-4.64;65.25;96147.69;5106517;28;20023;-77
2023/02/07 05:13:38;;;;;;;8.05;5.47;;;;;;;-4.55;66.14;96165.41;5094525;28;20505;-77
2023/02/07 05:16:04;;;;;;;7.97;5.60;;;;;;;-4.77;66.34;96129.09;5093888;28;20063;-77
2023/02/07 05:18:29;;;;;;;11.57;6.13;;;;;;;-5.00;65.75;96101.28;5106822;28;20114;-78
2023/02/07 05:20:55;;;;;;;9.43;6.25;;;;;;;-4.66;65.35;96167.97;5080942;28;20027;-78
2023/02/07 05:23:20;;;;;;;9.93;6.55;;;;;;;-4.82;66.33;96140.94;5098653;27;20038;-77
2023/02/07 05:25:49;;;;;;;8.55;6.13;;;;;;;-4.49;64.84;96186.50;5114719;27;20030;-77
2023/02/07 05:28:14;;;;;;;10.88;6.18;;;;;;;-5.09;65.64;96093.69;5123594;27;20346;-77
2023/02/07 05:30:40;;;;;;;9.95;5.90;;;;;;;-4.52;65.43;96181.44;5094084;27;20122;-78
2023/02/07 05:33:05;;;;;;;8.70;5.93;;;;;;;-4.67;65.10;96163.75;5094987;27;20051;-78
2023/02/07 05:35:50;;;;;;;10.75;6.45;;;;;;;-4.61;66.14;96190.78;5113279;27;20067;-78
2023/02/07 05:38:17;;;;;;;10.30;6.20;;;;;;;-4.94;65.88;96159.56;5113918;27;20031;-78
2023/02/07 05:40:42;;;;;;;10.77;6.40;;;;;;;-4.66;66.38;96193.31;5109274;27;20023;-78
2023/02/07 05:43:09;;;;;;;10.02;6.93;;;;;;;-5.24;65.45;96104.66;5098609;27;20515;-78
2023/02/07 05:45:34;;;;;;;9.27;6.70;;;;;;;-4.76;66.19;96195.03;5095070;28;20035;-78
2023/02/07 05:47:59;;;;;;;11.25;7.22;;;;;;;-4.65;66.20;96187.41;5095109;28;20046;-78
2023/02/07 05:50:25;;;;;;;10.18;6.57;;;;;;;-4.83;66.33;96172.22;5124481;27;20028;-78
2023/02/07 05:52:51;;;;;;;9.57;6.50;;;;;;;-5.07;66.98;96120.72;5094216;28;20122;-78
2023/02/07 05:55:16;;;;;;;9.18;6.28;;;;;;;-5.09;66.16;96157.88;5096329;28;20036;-78
2023/02/07 05:57:43;;;;;;;9.98;6.32;;;;;;;-5.12;66.06;96139.31;5089084;27;20480;-78
2023/02/07 06:00:13;;;;;;;9.52;6.47;;;;;;;-4.77;65.83;96190.78;5088836;27;20068;-78
2023/02/07 06:02:39;;;;;;;10.52;6.63;;;;;;;-4.66;66.26;96203.47;5096381;28;20039;-78
2023/02/07 06:05:06;;;;;;;12.45;8.23;;;;;;;-4.53;66.84;96215.28;5114321;27;20511;-78
2023/02/07 06:07:31;;;;;;;11.95;8.05;;;;;;;-4.58;66.67;96199.22;5091766;27;20165;-78
2023/02/07 06:09:57;;;;;;;11.68;7.45;;;;;;;-4.37;67.24;96216.09;5106492;27;20118;-78
2023/02/07 06:12:22;;;;;;;10.00;6.80;;;;;;;-4.44;67.07;96211.88;5122974;27;20028;-78
2023/02/07 06:14:48;;;;;;;14.80;8.07;;;;;;;-4.39;67.81;96222.03;5088433;27;20020;-77
2023/02/07 06:17:13;;;;;;;9.90;6.97;;;;;;;-4.85;66.50;96140.94;5105857;27;20031;-78
2023/02/07 06:19:39;;;;;;;10.82;7.28;;;;;;;-4.31;66.28;96225.41;5104227;27;20400;-77
2023/02/07 06:22:04;;;;;;;11.45;6.68;;;;;;;-4.41;66.47;96213.56;5090365;27;20023;-78
2023/02/07 06:24:30;;;;;;;11.27;7.00;;;;;;;-4.37;65.28;96221.19;5102405;27;20034;-78
2023/02/07 06:26:55;;;;;;;12.18;7.28;;;;;;;-4.28;66.02;96216.06;5107966;28;20042;-78
2023/02/07 06:29:21;;;;;;;11.18;7.00;;;;;;;-4.71;65.62;96139.22;5104051;27;20035;-78
2023/02/07 06:31:46;;;;;;;10.35;6.40;;;;;;;-4.20;65.28;96227.91;5105019;27;20055;-78
2023/02/07 06:34:12;;;;;;;14.70;8.60;;;;;;;-4.11;63.77;96218.56;5110644;27;20429;-78
2023/02/07 06:36:37;;;;;;;13.70;7.75;;;;;;;-4.06;63.75;96226.16;5091739;27;20108;-78
2023/02/07 06:39:03;;;;;;;11.50;7.25;;;;;;;-4.53;63.33;96131.56;5097430;28;20027;-78
2023/02/07 06:41:28;;;;;;;11.90;8.07;;;;;;;-3.91;63.95;96232.88;5090449;27;20023;-78
2023/02/07 06:43:54;;;;;;;14.55;7.82;;;;;;;-3.93;63.56;96229.50;5118026;27;20497;-78
2023/02/07 06:46:19;;;;;;;12.82;7.90;;;;;;;-3.86;63.64;96224.38;5093139;27;20038;-77
2023/02/07 06:48:45;;;;;;;12.30;7.68;;;;;;;-3.80;62.85;96238.75;5093047;27;20443;-82
2023/02/07 06:51:10;;;;;;;12.73;7.57;;;;;;;-3.79;62.58;96244.66;5126778;27;20027;-78
2023/02/07 06:53:36;;;;;;;10.85;6.88;;;;;;;-3.56;61.72;96249.66;5108230;27;20051;-78
2023/02/07 06:56:04;;;;;;;12.90;8.00;;;;;;;-4.18;62.49;96161.06;5106383;27;20564;-79
2023/02/07 06:58:29;;;;;;;13.50;8.52;;;;;;;-3.89;62.26;96203.25;5104715;28;20031;-79
2023/02/07 07:00:55;;;;;;;11.35;7.28;;;;;;;-4.07;61.88;96173.69;5126540;27;20038;-79
2023/02/07 07:03:25;;;;;;;11.38;7.32;;;;;;;-4.08;61.32;96160.16;5100562;27;20039;-80
2023/02/07 07:05:51;;;;;;;9.97;6.67;;;;;;;-4.10;61.18;96149.16;5121562;27;20043;-77
2023/02/07 07:08:17;;;;;;;12.02;7.47;;;;;;;-4.06;61.14;96150.84;5103039;27;20043;-77
2023/02/07 07:10:43;;;;;;;15.55;8.50;;;;;;;-3.64;61.32;96212.44;5114428;27;20042;-81
2023/02/07 07:13:08;;;;;;;17.83;11.18;;;;;;;-3.57;61.37;96215.78;5104855;27;20111;-78
2023/02/07 07:15:34;;;;;;;15.45;9.48;;;;;;;-3.30;60.31;96216.47;5110236;27;20035;-78
2023/02/07 07:17:59;;;;;;;15.40;9.43;;;;;;;-3.28;60.01;96238.50;5108946;27;20046;-81
2023/02/07 07:20:28;;;;;;;16.45;11.07;;;;;;;-3.37;60.58;96220.75;5125470;27;20035;-78
2023/02/07 07:22:54;;;;;;;16.55;9.85;;;;;;;-3.27;59.66;96242.72;5102300;27;20055;-75
2023/02/07 07:25:20;;;;;;;18.40;10.85;;;;;;;-3.26;59.47;96207.97;5118663;27;20019;-81
2023/02/07 07:27:45;;;;;;;20.17;13.73;;;;;;;-3.11;59.79;96235.00;5117704;27;20080;-76
2023/02/07 07:30:11;;;;;;;18.58;13.55;;;;;;;-2.88;58.89;96247.53;5117092;27;20030;-78
2023/02/07 07:32:37;;;;;;;13.75;9.35;;;;;;;-3.03;59.04;96231.53;5122243;27;20047;-78
2023/02/07 07:35:03;;;;;;;15.52;10.27;;;;;;;-3.08;59.20;96230.72;5117153;27;20490;-78
2023/02/07 07:37:28;;;;;;;15.23;9.55;;;;;;;-2.90;59.05;96237.34;5107082;27;20111;-81
2023/02/07 07:39:54;;;;;;;18.13;11.88;;;;;;;-2.89;59.10;96233.97;5120295;27;20027;-74
2023/02/07 07:42:19;;;;;;;20.48;10.50;;;;;;;-2.76;58.46;96230.50;5100994;27;20503;-77
2023/02/07 07:44:45;;;;;;;16.38;10.35;;;;;;;-2.69;58.23;96213.47;5082235;27;20040;-77
2023/02/07 07:47:11;;;;;;;13.30;8.70;;;;;;;-2.70;57.03;96237.22;5088437;27;20431;-77
2023/02/07 07:49:37;;;;;;;12.23;8.15;;;;;;;-3.11;56.81;96158.72;5108089;27;20079;-76
2023/02/07 07:52:02;;;;;;;15.00;8.48;;;;;;;-1.65;54.30;96211.47;5097731;27;20503;-77
2023/02/07 07:54:29;;;;;;;14.52;8.55;;;;;;;-1.69;52.91;96225.13;5088453;27;20022;-77
2023/02/07 07:56:54;;;;;;;14.68;11.13;;;;;;;-1.22;51.77;96140.34;5099558;27;20404;-77
2023/02/07 07:59:20;;;;;;;16.05;9.90;;;;;;;-0.23;48.70;96121.56;5116303;27;20027;-77
2023/02/07 08:01:45;;;;;;;15.05;9.30;;;;;;;0.84;46.21;96203.66;5106220;27;20031;-77
2023/02/07 08:04:11;;;;;;;13.07;8.38;;;;;;;0.38;44.51;96111.78;5113087;27;20492;-77
2023/02/07 08:06:36;;;;;;;18.27;10.23;;;;;;;0.03;46.69;96215.59;5098542;27;20252;-76
2023/02/07 08:09:01;;;;;;;14.32;9.20;;;;;;;-0.44;47.78;96229.25;5117634;27;20020;-76
2023/02/07 08:11:27;;;;;;;14.38;7.95;;;;;;;-0.81;48.67;96224.72;5089392;27;20100;-76
2023/02/07 08:13:53;;;;;;;13.52;9.02;;;;;;;-0.99;48.23;96203.72;5099993;27;20126;-76
2023/02/07 08:16:18;;;;;;;13.90;8.60;;;;;;;0.10;46.77;96216.31;5118803;27;20031;-76
2023/02/07 08:18:43;;;;;;;13.77;8.50;;;;;;;0.65;44.74;96215.19;5119764;27;20110;-76
2023/02/07 08:21:09;;;;;;;13.18;8.50;;;;;;;0.38;45.65;96224.25;5118829;27;20424;-76
2023/02/07 08:23:38;;;;;;;16.67;11.38;;;;;;;-0.02;46.30;96236.13;5119458;27;20027;-76
2023/02/07 08:26:03;;;;;;;17.10;10.32;;;;;;;-0.27;46.19;96232.34;5095121;27;20031;-77
2023/02/07 08:28:29;;;;;;;15.43;9.23;;;;;;;-1.25;46.54;96129.34;5107441;28;20049;-78
2023/02/07 08:30:59;;;;;;;15.32;8.88;;;;;;;-1.38;47.31;96129.53;5125511;27;20031;-77
2023/02/07 08:33:24;;;;;;;19.35;11.02;;;;;;;-1.45;48.54;96153.44;5106887;28;20119;-77
2023/02/07 08:35:50;;;;;;;33.40;18.33;;;;;;;-1.67;47.80;96140.16;5121666;27;20042;-78
2023/02/07 08:38:15;;;;;;;21.70;12.43;;;;;;;-1.65;48.43;96153.69;5127371;28;20032;-77
2023/02/07 08:40:41;;;;;;;17.00;10.00;;;;;;;-1.05;47.83;96224.25;5110794;28;20035;-77
2023/02/07 08:43:11;;;;;;;19.08;11.35;;;;;;;-1.08;49.05;96229.41;5090277;28;20112;-77
2023/02/07 08:45:40;;;;;;;18.83;11.30;;;;;;;-1.03;48.72;96230.19;5126622;28;20035;-77
2023/02/07 08:48:05;;;;;;;31.83;18.48;;;;;;;-0.91;48.96;96226.59;5127109;28;20062;-78
2023/02/07 08:50:31;;;;;;;38.88;21.52;;;;;;;-0.76;48.38;96222.94;5129126;27;20062;-77
2023/02/07 08:52:56;;;;;;;14.95;8.82;;;;;;;-0.58;48.30;96225.19;5106438;28;20043;-77
2023/02/07 08:55:25;;;;;;;12.57;8.27;;;;;;;-0.60;48.30;96223.53;5110637;27;20489;-77
2023/02/07 08:57:50;;;;;;;19.67;12.00;;;;;;;-1.04;48.81;96143.44;5114020;27;20023;-77
2023/02/07 09:00:16;;;;;;;17.98;9.73;;;;;;;-0.60;47.68;96229.47;5123781;27;20032;-77
2023/02/07 09:02:42;;;;;;;13.02;8.98;;;;;;;-0.43;47.75;96233.47;5130822;27;20522;-78
2023/02/07 09:05:08;;;;;;;10.60;7.13;;;;;;;-0.60;46.65;96229.47;5113588;27;20080;-78
2023/02/07 09:07:33;;;;;;;9.20;6.38;;;;;;;-0.54;46.20;96195.34;5132299;27;20039;-78
2023/02/07 09:09:59;;;;;;;11.65;7.22;;;;;;;-1.01;45.83;96141.69;5110282;27;20409;-77
2023/02/07 09:12:24;;;;;;;10.82;6.57;;;;;;;-0.87;45.37;96169.53;5109749;28;20106;-77
2023/02/07 09:14:50;;;;;;;17.90;12.25;;;;;;;-0.48;46.65;96229.25;5092812;27;20059;-77
2023/02/07 09:17:15;;;;;;;10.73;6.75;;;;;;;-0.64;45.60;96224.44;5113543;27;20027;-77
2023/02/07 09:19:41;;;;;;;11.30;6.70;;;;;;;-0.52;45.85;96220.00;5096079;27;20209;-77
2023/02/07 09:22:06;;;;;;;10.85;7.72;;;;;;;-0.85;46.48;96184.81;5132408;27;20050;-77
2023/02/07 09:24:32;;;;;;;15.18;9.90;;;;;;;-0.33;47.79;96232.44;5131260;27;20408;-77
2023/02/07 09:26:57;;;;;;;15.02;10.05;;;;;;;-0.50;46.06;96217.41;5132300;27;20034;-76
2023/02/07 09:29:23;;;;;;;29.25;16.00;;;;;;;-0.74;46.74;96200.78;5125616;27;20393;-77
2023/02/07 09:31:49;;;;;;;13.85;8.75;;;;;;;-0.69;47.23;96222.00;5126362;27;20047;-77
2023/02/07 09:34:14;;;;;;;10.77;7.07;;;;;;;-0.95;46.84;96214.72;5095216;27;20511;-77
2023/02/07 09:36:40;;;;;;;19.38;10.25;;;;;;;-0.55;46.85;96220.03;5113651;27;20035;-77
2023/02/07 09:39:05;;;;;;;22.70;12.00;;;;;;;-0.52;47.71;96203.84;5130686;27;20469;-78
2023/02/07 09:41:51;;;;;;;22.90;13.18;;;;;;;-0.56;47.75;96213.22;5114551;27;20092;-77
2023/02/07 09:44:29;;;;;;;15.85;10.55;;;;;;;-0.64;47.49;96194.69;5130663;27;20023;-76
2023/02/07 09:47:08;;;;;;;14.07;7.75;;;;;;;-0.51;46.66;96214.00;5101797;27;20035;-75
2023/02/07 09:49:34;;;;;;;28.38;18.58;;;;;;;-0.48;47.26;96211.38;5097822;27;20077;-77
2023/02/07 09:51:59;;;;;;;12.77;8.95;;;;;;;-0.44;46.46;96212.19;5129621;27;20031;-74
2023/02/07 09:54:37;;;;;;;13.05;7.72;;;;;;;-0.53;45.93;96213.22;5111105;27;20515;-74
2023/02/07 09:57:05;;;;;;;13.45;7.65;;;;;;;-0.68;46.67;96201.53;5108486;27;20287;-74
2023/02/07 09:59:51;;;;;;;15.27;8.50;;;;;;;-0.59;46.71;96213.28;5113077;27;20039;-71
2023/02/07 10:02:22;;;;;;;19.83;10.80;;;;;;;-0.73;47.00;96175.22;5108528;27;20043;-74
2023/02/07 10:04:48;;;;;;;;;;;;;;;-0.67;47.06;96204.91;5094969;27;20035;-79
2023/02/07 10:07:13;;;;;;;12.85;8.40;;;;;;;-1.07;47.25;96205.56;5111722;27;21037;-74
2023/02/07 10:09:41;;;;;;;11.90;7.68;;;;;;;-1.06;47.09;96197.03;5114950;27;20027;-79
2023/02/07 10:12:11;;;;;;;10.15;7.10;;;;;;;-0.95;46.34;96202.84;5108484;27;20045;-75
2023/02/07 10:14:57;;;;;;;10.60;7.45;;;;;;;-0.81;47.02;96199.19;5119214;27;20049;-75
2023/02/07 10:17:34;;;;;;;12.05;7.72;;;;;;;-1.22;46.48;96114.00;5102876;27;20435;-75
2023/02/07 10:20:31;;;;;;;13.13;8.52;;;;;;;-0.87;46.82;96176.34;5091073;27;20149;-74
2023/02/07 10:23:09;;;;;;;12.63;8.00;;;;;;;-0.75;47.01;96183.81;5122664;27;20515;-74
2023/02/07 10:25:41;;;;;;;12.82;7.30;;;;;;;-1.09;47.61;96184.31;5119116;27;20034;-75
2023/02/07 10:28:13;;;;;;;12.15;7.80;;;;;;;-1.18;48.85;96177.66;5124492;27;20038;-74
2023/02/07 10:30:40;;;;;;;14.23;9.13;;;;;;;-1.44;48.27;96082.91;5119093;27;20490;-73
2023/02/07 10:33:12;;;;;;;23.20;13.00;;;;;;;-0.86;48.79;96165.25;5117669;27;20058;-73
2023/02/07 10:35:38;;;;;;;32.78;19.00;;;;;;;-0.83;48.35;96168.63;5104775;27;20458;-74
2023/02/07 10:38:04;;;;;;;16.30;10.07;;;;;;;-0.79;48.05;96171.94;5086964;28;20028;-74
2023/02/07 10:40:42;;;;;;;15.13;9.18;;;;;;;-1.64;48.75;96081.50;5109009;27;20045;-74
2023/02/07 10:43:31;;;;;;;14.50;10.25;;;;;;;-0.97;49.29;96173.94;5109559;27;20046;-74
2023/02/07 10:46:16;;;;;;;13.45;9.38;;;;;;;-1.04;49.30;96172.34;5111843;27;20489;-74
2023/02/07 10:48:41;;;;;;;13.82;8.88;;;;;;;-1.95;49.89;96060.72;5128533;27;20031;-74
2023/02/07 10:51:31;;;;;;;11.93;8.00;;;;;;;-1.63;50.38;96172.38;5129555;27;20511;-74
2023/02/07 10:54:03;;;;;;;15.48;11.02;;;;;;;-2.29;51.00;96070.50;5108363;27;20043;-74
2023/02/07 10:56:30;;;;;;;12.07;8.18;;;;;;;-1.49;50.89;96166.25;5127883;27;20143;-74
2023/02/07 10:58:56;;;;;;;16.40;9.20;;;;;;;-1.55;50.98;96156.97;5092110;27;20055;-74
2023/02/07 11:01:23;;;;;;;13.13;9.98;;;;;;;-1.29;51.17;96154.03;5128528;27;20561;-76
2023/02/07 11:03:49;;;;;;;18.65;10.25;;;;;;;-1.05;51.28;96157.09;5120737;27;20560;-74
2023/02/07 11:06:22;;;;;;;16.20;10.30;;;;;;;-1.26;51.81;96074.94;5123766;27;20027;-74
2023/02/07 11:08:48;;;;;;;16.00;11.55;;;;;;;-1.32;52.20;96064.00;5124814;27;20057;-74
2023/02/07 11:11:24;;;;;;;17.73;11.38;;;;;;;-0.87;52.35;96148.28;5128041;27;20497;-74
2023/02/07 11:13:51;;;;;;;14.55;10.13;;;;;;;-1.01;51.55;96117.88;5121883;27;20045;-74
2023/02/07 11:16:17;;;;;;;15.82;9.85;;;;;;;-1.34;51.36;96069.13;5120303;27;20084;-75
2023/02/07 11:18:44;;;;;;;13.77;8.80;;;;;;;-1.73;50.40;96056.13;5111368;27;20126;-74
2023/02/07 11:21:29;;;;;;;13.82;8.40;;;;;;;-0.96;50.41;96137.34;5115082;27;20015;-74
2023/02/07 11:23:58;;;;;;;15.18;9.60;;;;;;;-0.76;49.64;96139.56;5128487;27;20035;-74
2023/02/07 11:26:23;;;;;;;15.65;9.35;;;;;;;-0.57;49.16;96140.06;5127962;27;20041;-74
2023/02/07 11:28:53;;;;;;;13.77;8.35;;;;;;;-0.39;48.26;96130.38;5107787;27;20028;-74
2023/02/07 11:31:18;;;;;;;13.50;8.05;;;;;;;-0.13;47.23;96125.63;5128691;27;20115;-74
2023/02/07 11:33:44;;;;;;;12.82;8.43;;;;;;;-0.05;46.66;96120.38;5127318;27;20055;-74